Time;durP1;ratioP1;P1;durP2;ratioP2;P2;SDS_P1;SDS_P2;PMS_P1;PMS_P2;Temp;Humidity;BMP_temperature;BMP_pressure;BME280_temperature;BME280_humidity;BME280_pressure;Samples;Min_cycle;Max_cycle;Signal;HPM_P1;HPM_P2
2023/05/31 00:01:22;;;;;;;0.10;0.10;;;;;;;18.57;56.10;102821.53;5062529;28;20505;-64
2023/05/31 00:03:47;;;;;;;0.10;0.10;;;;;;;18.78;56.02;102807.41;5057552;28;20088;-65
2023/05/31 00:06:13;;;;;;;0.13;0.13;;;;;;;18.94;55.06;102816.81;5067210;28;20048;-65
2023/05/31 00:08:39;;;;;;;0.10;0.10;;;;;;;18.74;55.49;102806.22;5056353;28;20025;-65
2023/05/31 00:11:06;;;;;;;0.20;0.20;;;;;;;18.27;57.12;102817.91;5063157;28;20179;-65
2023/05/31 00:13:31;;;;;;;0.20;0.20;;;;;;;18.80;55.48;102808.00;5063474;28;20530;-68
2023/05/31 00:15:57;;;;;;;0.17;0.17;;;;;;;18.73;55.88;102807.25;5071305;28;20311;-66
2023/05/31 00:18:22;;;;;;;0.22;0.22;;;;;;;18.96;54.76;102806.50;5054911;28;20061;-66
2023/05/31 00:20:47;;;;;;;0.20;0.20;;;;;;;19.00;54.91;102805.81;5065407;28;20033;-65
2023/05/31 00:23:13;;;;;;;0.20;0.20;;;;;;;19.36;53.52;102802.09;5061033;28;20044;-64
2023/05/31 00:25:38;;;;;;;0.10;0.10;;;;;;;19.11;54.50;102809.63;5063504;28;20041;-65
2023/05/31 00:28:04;;;;;;;0.22;0.22;;;;;;;19.10;54.19;102811.50;5067691;28;20523;-65
2023/05/31 00:30:29;;;;;;;0.00;0.00;;;;;;;18.64;56.06;102805.94;5054772;28;20024;-64
2023/05/31 00:32:55;;;;;;;0.20;0.20;;;;;;;18.58;55.62;102804.13;5064498;28;20429;-64
2023/05/31 00:35:20;;;;;;;0.10;0.10;;;;;;;18.90;53.97;102797.38;5032426;28;20036;-67
2023/05/31 00:37:46;;;;;;;0.10;0.10;;;;;;;18.97;54.27;102806.28;5050021;28;20051;-66
2023/05/31 00:40:11;;;;;;;0.20;0.20;;;;;;;19.33;52.93;102802.59;5033034;28;20040;-66
2023/05/31 00:42:37;;;;;;;0.20;0.20;;;;;;;18.01;56.82;102808.16;5066305;28;20036;-66
2023/05/31 00:45:02;;;;;;;0.10;0.10;;;;;;;18.77;54.65;102805.72;5059477;28;20032;-64
2023/05/31 00:47:28;;;;;;;0.10;0.10;;;;;;;18.60;55.01;102799.28;5059343;28;20492;-66
2023/05/31 00:49:58;;;;;;;0.10;0.10;;;;;;;18.26;57.02;102806.19;5065839;28;20455;-64
2023/05/31 00:52:24;;;;;;;0.20;0.20;;;;;;;18.53;56.15;102800.44;5054336;28;20607;-65
2023/05/31 00:54:50;;;;;;;0.10;0.10;;;;;;;18.26;56.44;102808.06;5064068;28;20108;-65
2023/05/31 00:57:16;;;;;;;0.10;0.10;;;;;;;18.58;55.90;102804.13;5033158;28;20166;-65
2023/05/31 00:59:42;;;;;;;0.10;0.10;;;;;;;18.00;57.24;102811.97;5050414;28;20497;-66
2023/05/31 01:02:08;;;;;;;0.15;0.15;;;;;;;18.29;55.94;102815.78;5067029;28;20432;-68
2023/05/31 01:04:34;;;;;;;0.10;0.10;;;;;;;18.37;55.64;102808.16;5054779;28;20064;-65
2023/05/31 01:07:00;;;;;;;0.20;0.20;;;;;;;18.24;56.42;102805.56;5068788;28;20200;-65
2023/05/31 01:09:28;;;;;;;0.17;0.17;;;;;;;18.89;54.30;102808.50;5059514;28;20052;-65
2023/05/31 01:12:12;;;;;;;0.10;0.10;;;;;;;18.58;55.61;102806.00;5065559;28;20041;-66
2023/05/31 01:15:01;;;;;;;0.20;0.20;;;;;;;18.32;55.70;102809.88;5036389;28;20457;-66
2023/05/31 01:17:34;;;;;;;0.15;0.15;;;;;;;18.13;56.26;102811.78;5049988;28;20045;-67
2023/05/31 01:20:08;;;;;;;0.20;0.20;;;;;;;18.38;55.77;102808.97;5065880;28;20377;-65
2023/05/31 01:22:57;;;;;;;0.10;0.10;;;;;;;18.59;55.24;102805.81;5042334;28;20036;-67
2023/05/31 01:25:35;;;;;;;0.30;0.30;;;;;;;18.41;55.56;102798.47;5060892;28;20097;-66
2023/05/31 01:28:05;;;;;;;0.20;0.20;;;;;;;18.24;56.21;102808.31;5053838;28;20056;-66
2023/05/31 01:30:33;;;;;;;0.22;0.22;;;;;;;18.67;54.63;102801.94;5049813;28;20021;-66
2023/05/31 01:32:59;;;;;;;0.20;0.20;;;;;;;18.75;54.52;102810.59;5057991;28;20193;-66
2023/05/31 01:35:25;;;;;;;0.30;0.30;;;;;;;18.77;53.90;102811.19;5060825;28;20078;-66
2023/05/31 01:37:51;;;;;;;0.13;0.13;;;;;;;18.39;55.04;102811.47;5069410;28;20041;-64
2023/05/31 01:40:17;;;;;;;0.10;0.10;;;;;;;18.63;54.26;102806.16;5052993;28;20060;-67
2023/05/31 01:42:44;;;;;;;0.10;0.10;;;;;;;18.67;54.29;102804.66;5064395;28;20029;-65
2023/05/31 01:45:12;;;;;;;0.20;0.20;;;;;;;18.54;54.35;102794.75;5059094;28;20460;-66
2023/05/31 01:47:40;;;;;;;0.10;0.10;;;;;;;19.00;53.27;102797.66;5056691;28;20091;-66
2023/05/31 01:50:07;;;;;;;0.20;0.20;;;;;;;18.69;53.97;102791.63;5065584;28;20115;-66
2023/05/31 01:52:34;;;;;;;0.13;0.13;;;;;;;18.57;54.82;102790.75;5053638;28;20071;-65
2023/05/31 01:55:01;;;;;;;0.10;0.10;;;;;;;18.61;54.49;102794.69;5061479;28;20037;-67
2023/05/31 01:57:30;;;;;;;0.20;0.20;;;;;;;18.78;53.56;102804.69;5061164;28;20036;-66
2023/05/31 01:59:58;;;;;;;0.15;0.15;;;;;;;18.78;53.89;102801.13;5054382;28;20025;-65
2023/05/31 02:02:24;;;;;;;0.20;0.20;;;;;;;18.61;54.24;102805.56;5065762;28;20037;-64
2023/05/31 02:04:50;;;;;;;0.20;0.20;;;;;;;18.60;54.69;102795.72;5055881;28;20538;-65
2023/05/31 02:07:16;;;;;;;0.20;0.20;;;;;;;18.27;55.27;102798.84;5059417;28;20060;-65
2023/05/31 02:09:41;;;;;;;0.20;0.20;;;;;;;18.29;55.69;102800.31;5062366;28;20036;-65
2023/05/31 02:12:07;;;;;;;0.15;0.15;;;;;;;18.49;55.04;102793.78;5053144;28;20025;-66
2023/05/31 02:14:32;;;;;;;0.25;0.25;;;;;;;18.45;54.82;102790.69;5069092;28;20032;-66
2023/05/31 02:16:58;;;;;;;0.20;0.20;;;;;;;18.48;55.00;102797.56;5061321;28;20037;-68
2023/05/31 02:19:25;;;;;;;0.10;0.10;;;;;;;18.49;55.06;102785.63;5060132;28;20574;-66
2023/05/31 02:21:51;;;;;;;0.20;0.20;;;;;;;18.57;54.20;102791.59;5036268;28;20107;-66
2023/05/31 02:24:17;;;;;;;0.20;0.20;;;;;;;18.50;54.64;102784.53;5051688;28;20082;-64
2023/05/31 02:26:42;;;;;;;0.10;0.10;;;;;;;18.62;54.34;102796.31;5063667;28;20029;-66
2023/05/31 02:29:07;;;;;;;0.30;0.30;;;;;;;18.57;54.09;102791.59;5057610;28;20032;-64
2023/05/31 02:31:33;;;;;;;0.17;0.17;;;;;;;18.38;54.78;102798.06;5057790;28;20509;-66
2023/05/31 02:33:58;;;;;;;0.10;0.10;;;;;;;18.47;54.17;102791.31;5054695;28;20037;-64
2023/05/31 02:36:28;;;;;;;0.10;0.10;;;;;;;18.79;53.36;102783.72;5041080;28;20017;-64
2023/05/31 02:38:54;;;;;;;0.20;0.20;;;;;;;18.51;54.63;102787.06;5058370;28;20052;-64
2023/05/31 02:41:20;;;;;;;0.20;0.20;;;;;;;18.64;54.05;102792.31;5051483;28;20068;-66
2023/05/31 02:43:45;;;;;;;0.15;0.15;;;;;;;18.11;55.05;102792.16;5054867;28;20037;-66
2023/05/31 02:46:10;;;;;;;0.20;0.20;;;;;;;18.40;54.50;102782.34;5057454;28;20033;-66
2023/05/31 02:48:36;;;;;;;0.10;0.10;;;;;;;18.20;54.56;102790.75;5048993;28;20025;-65
2023/05/31 02:51:01;;;;;;;0.40;0.40;;;;;;;18.00;55.81;102784.75;5058342;28;20495;-65
2023/05/31 02:53:28;;;;;;;0.20;0.20;;;;;;;18.27;55.45;102794.25;5048685;28;20036;-66
2023/05/31 02:55:54;;;;;;;0.20;0.20;;;;;;;18.16;55.58;102792.28;5048524;28;20040;-65
2023/05/31 02:58:19;;;;;;;0.20;0.20;;;;;;;18.08;55.39;102803.47;5048643;28;20156;-65
2023/05/31 03:00:45;;;;;;;0.10;0.10;;;;;;;18.06;55.89;102796.63;5034486;28;20041;-65
2023/05/31 03:03:12;;;;;;;0.30;0.30;;;;;;;18.10;55.89;102798.63;5046098;28;20032;-66
2023/05/31 03:05:38;;;;;;;0.13;0.13;;;;;;;17.82;56.75;102798.34;5052597;28;20155;-66
2023/05/31 03:08:03;;;;;;;0.20;0.20;;;;;;;17.91;56.05;102804.28;5052301;28;20037;-67
2023/05/31 03:10:28;;;;;;;0.13;0.13;;;;;;;17.96;56.77;102799.88;5036302;28;20067;-72
2023/05/31 03:12:54;;;;;;;0.20;0.20;;;;;;;18.05;56.54;102800.38;5061346;28;20036;-69
2023/05/31 03:15:20;;;;;;;0.10;0.10;;;;;;;18.20;55.44;102796.22;5052969;28;20381;-70
2023/05/31 03:17:45;;;;;;;0.10;0.10;;;;;;;17.86;57.07;102799.56;5059213;28;20053;-69
2023/05/31 03:20:11;;;;;;;0.20;0.20;;;;;;;17.45;57.68;102805.56;5055814;28;20032;-69
2023/05/31 03:22:37;;;;;;;0.20;0.20;;;;;;;17.92;57.27;102801.38;5064365;28;20043;-69
2023/05/31 03:25:03;;;;;;;0.17;0.17;;;;;;;17.62;57.93;102807.75;5071259;28;20036;-70
2023/05/31 03:27:30;;;;;;;0.28;0.28;;;;;;;17.36;59.00;102808.78;5060497;28;20094;-70
2023/05/31 03:29:56;;;;;;;0.10;0.10;;;;;;;17.99;56.50;102817.59;5059700;28;20056;-69
2023/05/31 03:32:21;;;;;;;0.10;0.10;;;;;;;18.22;56.31;102813.13;5068375;28;20079;-69
2023/05/31 03:34:46;;;;;;;0.20;0.20;;;;;;;17.84;57.23;102807.09;5058296;28;20508;-70
2023/05/31 03:37:12;;;;;;;0.10;0.10;;;;;;;17.89;56.73;102809.97;5062649;28;20026;-69
2023/05/31 03:39:37;;;;;;;0.20;0.20;;;;;;;18.03;57.04;102814.22;5065153;28;20439;-70
2023/05/31 03:42:03;;;;;;;0.20;0.20;;;;;;;17.96;57.13;102802.59;5056402;28;20025;-71
2023/05/31 03:44:28;;;;;;;0.20;0.20;;;;;;;18.08;56.45;102813.53;5038976;28;20024;-69
2023/05/31 03:46:53;;;;;;;0.10;0.10;;;;;;;18.44;55.38;102810.81;5065022;28;20404;-70
2023/05/31 03:49:19;;;;;;;0.30;0.30;;;;;;;17.64;56.85;102811.06;5062579;28;20040;-69
2023/05/31 03:51:45;;;;;;;0.10;0.10;;;;;;;18.40;55.26;102809.56;5058198;28;20028;-70
2023/05/31 03:54:10;;;;;;;0.15;0.15;;;;;;;18.03;56.83;102805.22;5068809;28;20537;-70
2023/05/31 03:56:35;;;;;;;0.10;0.10;;;;;;;17.87;57.29;102813.97;5055967;28;20158;-70
2023/05/31 03:59:02;;;;;;;0.20;0.20;;;;;;;18.24;55.72;102810.19;5063611;28;20037;-70
2023/05/31 04:01:27;;;;;;;0.10;0.10;;;;;;;17.43;58.65;102820.44;5055959;28;20488;-69
2023/05/31 04:03:52;;;;;;;0.10;0.10;;;;;;;17.50;58.08;102815.78;5057915;28;20029;-69
2023/05/31 04:06:18;;;;;;;0.20;0.20;;;;;;;17.86;57.06;102815.03;5057703;28;20017;-69
2023/05/31 04:08:43;;;;;;;0.20;0.20;;;;;;;17.30;58.88;102810.50;5057213;28;20044;-69
2023/05/31 04:11:09;;;;;;;0.20;0.20;;;;;;;18.29;55.98;102813.91;5058519;28;20074;-69
2023/05/31 04:13:34;;;;;;;0.20;0.20;;;;;;;18.44;55.07;102813.53;5056392;28;20072;-69
2023/05/31 04:15:59;;;;;;;0.20;0.20;;;;;;;17.92;57.45;102816.84;5055007;28;20044;-69
2023/05/31 04:18:25;;;;;;;0.20;0.20;;;;;;;18.61;55.49;102806.41;5067553;28;20373;-69
2023/05/31 04:20:51;;;;;;;0.20;0.20;;;;;;;18.34;55.73;102807.75;5057830;28;20037;-68
2023/05/31 04:23:16;;;;;;;0.20;0.20;;;;;;;18.40;55.07;102812.28;5063120;28;20435;-68
2023/05/31 04:25:44;;;;;;;0.10;0.10;;;;;;;18.42;55.59;102812.88;5062955;28;20113;-66
2023/05/31 04:28:11;;;;;;;0.10;0.10;;;;;;;18.19;55.86;102818.22;5067829;28;20048;-68
2023/05/31 04:30:37;;;;;;;0.30;0.30;;;;;;;18.30;56.40;102812.84;5055703;28;20146;-68
2023/05/31 04:33:04;;;;;;;0.20;0.20;;;;;;;18.68;54.98;102814.47;5063500;28;20190;-68
2023/05/31 04:35:30;;;;;;;0.20;0.20;;;;;;;18.56;55.27;102821.75;5062895;28;20124;-68
2023/05/31 04:37:58;;;;;;;0.20;0.20;;;;;;;18.55;55.36;102823.66;5055411;28;20553;-67
2023/05/31 04:40:25;;;;;;;0.10;0.10;;;;;;;18.47;56.24;102823.97;5050835;28;20128;-69
2023/05/31 04:42:51;;;;;;;0.10;0.10;;;;;;;18.54;55.52;102826.59;5043809;28;20120;-67
2023/05/31 04:45:16;;;;;;;0.17;0.17;;;;;;;17.93;57.55;102818.50;5051914;28;20028;-67
2023/05/31 04:47:42;;;;;;;0.20;0.20;;;;;;;18.39;56.40;102825.09;5050750;28;20037;-69
2023/05/31 04:50:08;;;;;;;0.10;0.10;;;;;;;18.99;55.07;102825.09;5051278;28;20028;-69
2023/05/31 04:52:33;;;;;;;0.20;0.20;;;;;;;18.74;55.55;102825.28;5048092;28;20088;-69
2023/05/31 04:54:59;;;;;;;0.20;0.20;;;;;;;18.28;56.77;102825.84;5050970;28;20033;-70
2023/05/31 04:57:28;;;;;;;0.10;0.10;;;;;;;18.07;58.17;102826.31;5043246;28;20436;-68
2023/05/31 04:59:56;;;;;;;0.20;0.20;;;;;;;18.53;55.83;102831.22;5048408;28;20497;-68
2023/05/31 05:02:21;;;;;;;0.30;0.30;;;;;;;19.09;54.72;102830.81;5033064;28;20401;-71
2023/05/31 05:04:47;;;;;;;0.20;0.20;;;;;;;18.19;57.71;102820.94;5050745;28;20040;-70
2023/05/31 05:07:13;;;;;;;0.20;0.20;;;;;;;18.21;58.12;102825.09;5049876;28;20036;-70
2023/05/31 05:09:39;;;;;;;0.10;0.10;;;;;;;18.77;56.16;102818.53;5049718;28;20025;-70
2023/05/31 05:12:05;;;;;;;0.30;0.30;;;;;;;18.15;57.27;102817.84;5051634;28;20040;-70
2023/05/31 05:14:31;;;;;;;0.10;0.10;;;;;;;18.77;56.38;102826.72;5052398;28;20036;-70
2023/05/31 05:16:56;;;;;;;0.10;0.10;;;;;;;18.44;57.69;102818.16;5046581;28;20051;-69
2023/05/31 05:19:22;;;;;;;0.20;0.20;;;;;;;18.99;55.44;102817.78;5053386;28;20386;-70
2023/05/31 05:21:47;;;;;;;0.15;0.15;;;;;;;19.26;54.93;102820.94;5062727;28;20052;-70
2023/05/31 05:24:13;;;;;;;0.10;0.10;;;;;;;18.93;56.00;102813.25;5052252;28;20032;-70
2023/05/31 05:26:39;;;;;;;0.10;0.10;;;;;;;19.57;54.73;102817.06;5057829;28;20033;-70
2023/05/31 05:29:04;;;;;;;0.20;0.20;;;;;;;19.09;56.58;102830.81;5048067;28;20041;-68
2023/05/31 05:31:30;;;;;;;0.10;0.10;;;;;;;19.22;55.83;102826.00;5044565;28;20512;-69
2023/05/31 05:33:55;;;;;;;0.15;0.15;;;;;;;19.37;55.73;102822.88;5044774;28;20037;-68
2023/05/31 05:36:21;;;;;;;0.10;0.10;;;;;;;19.19;55.72;102823.75;5042214;28;20505;-67
2023/05/31 05:38:47;;;;;;;0.20;0.20;;;;;;;19.55;55.18;102822.78;5053799;28;20033;-69
2023/05/31 05:41:12;;;;;;;0.10;0.10;;;;;;;19.76;54.82;102815.88;5058214;28;20079;-67
2023/05/31 05:43:39;;;;;;;0.10;0.10;;;;;;;19.86;54.17;102818.84;5055347;28;20041;-71
2023/05/31 05:46:04;;;;;;;0.20;0.20;;;;;;;19.85;54.85;102828.91;5053361;28;20057;-70
2023/05/31 05:48:29;;;;;;;0.20;0.20;;;;;;;19.77;54.93;102823.81;5051104;28;20492;-70
2023/05/31 05:50:55;;;;;;;0.10;0.10;;;;;;;19.33;56.28;102813.50;5058959;28;20021;-70
2023/05/31 05:53:20;;;;;;;0.20;0.20;;;;;;;18.79;58.55;102816.41;5052666;28;20481;-66
2023/05/31 05:55:53;;;;;;;0.20;0.20;;;;;;;19.21;58.04;102810.72;5048677;28;20037;-67
2023/05/31 05:58:19;;;;;;;0.15;0.15;;;;;;;19.43;56.43;102804.72;5055181;28;20036;-66
2023/05/31 06:00:45;;;;;;;0.20;0.20;;;;;;;20.08;54.68;102804.34;5040294;28;20067;-67
2023/05/31 06:03:12;;;;;;;0.10;0.10;;;;;;;19.89;55.28;102808.25;5057966;28;20025;-66
2023/05/31 06:05:37;;;;;;;0.20;0.20;;;;;;;19.11;57.46;102806.91;5057496;28;20047;-66
2023/05/31 06:08:02;;;;;;;0.10;0.10;;;;;;;19.87;55.64;102806.88;5054949;28;20060;-66
2023/05/31 06:10:28;;;;;;;0.10;0.10;;;;;;;20.42;53.97;102808.06;5058164;28;20037;-67
2023/05/31 06:12:54;;;;;;;0.15;0.15;;;;;;;20.19;54.64;102804.56;5049206;28;20118;-67
2023/05/31 06:15:19;;;;;;;0.10;0.10;;;;;;;19.99;55.13;102807.66;5040488;28;20032;-68
2023/05/31 06:17:45;;;;;;;0.20;0.20;;;;;;;20.41;54.53;102811.88;5043679;28;20067;-68
2023/05/31 06:20:10;;;;;;;0.20;0.20;;;;;;;20.26;55.13;102808.84;5046497;28;20040;-67
2023/05/31 06:22:36;;;;;;;0.10;0.10;;;;;;;20.58;53.96;102801.00;5045227;28;20029;-69
2023/05/31 06:25:02;;;;;;;0.10;0.10;;;;;;;20.10;55.08;102799.47;5045767;28;20063;-68
2023/05/31 06:27:27;;;;;;;0.10;0.10;;;;;;;20.42;54.97;102804.50;5046886;28;20268;-69
2023/05/31 06:29:57;;;;;;;0.10;0.10;;;;;;;20.82;52.84;102808.00;5054511;28;20029;-68
2023/05/31 06:32:27;;;;;;;0.10;0.10;;;;;;;21.34;52.22;102809.50;5028692;28;20040;-69
2023/05/31 06:34:53;;;;;;;0.20;0.20;;;;;;;21.07;52.77;102808.47;5040202;28;20033;-67
2023/05/31 06:37:18;;;;;;;0.10;0.10;;;;;;;20.42;54.54;102813.50;5046798;28;20037;-67
2023/05/31 06:39:44;;;;;;;0.15;0.15;;;;;;;21.16;52.39;102814.38;5053344;28;20055;-67
2023/05/31 06:42:10;;;;;;;0.15;0.15;;;;;;;21.08;53.16;102812.06;5052577;28;20024;-67
2023/05/31 06:44:35;;;;;;;0.10;0.10;;;;;;;21.25;52.62;102807.41;5040008;28;20041;-66
2023/05/31 06:47:01;;;;;;;0.10;0.10;;;;;;;21.38;52.17;102810.69;5045038;28;20033;-68
2023/05/31 06:49:27;;;;;;;0.17;0.17;;;;;;;21.60;51.62;102817.03;5050794;28;20082;-68
2023/05/31 06:51:53;;;;;;;0.20;0.20;;;;;;;21.77;51.06;102817.00;5052116;28;20040;-67
2023/05/31 06:54:18;;;;;;;0.10;0.10;;;;;;;22.09;50.17;102811.75;5056247;28;20518;-67
2023/05/31 06:56:44;;;;;;;0.10;0.10;;;;;;;21.62;51.53;102814.06;5046601;28;20402;-66
2023/05/31 06:59:09;;;;;;;0.10;0.10;;;;;;;21.25;53.41;102819.19;5055390;28;20409;-68
2023/05/31 07:01:35;;;;;;;0.20;0.20;;;;;;;22.05;51.54;102810.59;5028414;28;20041;-68
2023/05/31 07:04:00;;;;;;;0.20;0.20;;;;;;;22.76;49.08;102813.09;5055411;28;20040;-67
2023/05/31 07:06:25;;;;;;;0.10;0.10;;;;;;;22.55;49.48;102817.50;5046972;28;20443;-66
2023/05/31 07:08:51;;;;;;;0.20;0.20;;;;;;;22.13;51.41;102810.16;5055444;28;20051;-66
2023/05/31 07:11:17;;;;;;;0.10;0.10;;;;;;;22.41;50.19;102809.94;5047322;28;20033;-67
2023/05/31 07:13:43;;;;;;;0.13;0.13;;;;;;;22.95;48.19;102808.09;5047461;28;20200;-66
2023/05/31 07:16:08;;;;;;;0.10;0.10;;;;;;;22.46;49.78;102810.84;5046545;28;20047;-66
2023/05/31 07:18:34;;;;;;;0.10;0.10;;;;;;;22.62;48.88;102809.13;5046021;28;20318;-68
2023/05/31 07:20:59;;;;;;;0.10;0.10;;;;;;;22.50;49.70;102797.44;5027956;28;20025;-66
2023/05/31 07:23:26;;;;;;;0.10;0.10;;;;;;;22.18;50.15;102799.25;5034386;28;20041;-67
2023/05/31 07:25:51;;;;;;;0.10;0.10;;;;;;;23.00;48.44;102802.63;5081732;28;20021;-67
2023/05/31 07:28:16;;;;;;;0.10;0.10;;;;;;;23.39;46.77;102810.41;5047931;28;20518;-65
2023/05/31 07:30:42;;;;;;;0.10;0.10;;;;;;;23.43;46.68;102802.47;5050665;28;20032;-67
2023/05/31 07:33:07;;;;;;;0.20;0.20;;;;;;;23.29;47.32;102809.50;5055460;28;20021;-68
2023/05/31 07:35:32;;;;;;;0.13;0.13;;;;;;;22.03;49.88;102813.59;5050681;28;20074;-65
2023/05/31 07:37:58;;;;;;;0.10;0.10;;;;;;;22.92;48.14;102806.69;5050853;28;20405;-68
2023/05/31 07:40:23;;;;;;;0.10;0.10;;;;;;;23.15;47.46;102806.38;5051472;28;20126;-67
2023/05/31 07:42:49;;;;;;;0.10;0.10;;;;;;;23.42;46.48;102806.31;5046186;28;20516;-67
2023/05/31 07:45:14;;;;;;;0.10;0.10;;;;;;;22.85;47.70;102807.97;5041219;28;20027;-67
2023/05/31 07:47:39;;;;;;;0.10;0.10;;;;;;;23.61;45.99;102807.56;5056638;28;20447;-66
2023/05/31 07:50:05;;;;;;;0.10;0.10;;;;;;;23.78;45.76;102800.00;5059714;28;20224;-66
2023/05/31 07:52:31;;;;;;;0.20;0.20;;;;;;;22.65;47.15;102798.47;5057316;28;20461;-66
2023/05/31 07:54:56;;;;;;;0.10;0.10;;;;;;;22.54;48.57;102796.66;5058630;28;20040;-66
2023/05/31 07:57:22;;;;;;;0.15;0.15;;;;;;;22.80;47.72;102799.72;5059563;28;20099;-66
2023/05/31 07:59:50;;;;;;;0.10;0.10;;;;;;;23.77;45.67;102805.72;5057433;28;20040;-68
2023/05/31 08:02:16;;;;;;;0.10;0.10;;;;;;;24.07;44.07;102806.75;5060525;28;20120;-68
2023/05/31 08:04:41;;;;;;;0.10;0.10;;;;;;;24.34;43.87;102806.59;5059423;28;20416;-69
2023/05/31 08:07:07;;;;;;;0.10;0.10;;;;;;;24.86;42.59;102793.56;5060078;28;20032;-67
2023/05/31 08:09:32;;;;;;;0.10;0.10;;;;;;;24.63;42.81;102795.97;5057309;28;20029;-67
2023/05/31 08:11:57;;;;;;;0.10;0.10;;;;;;;24.42;43.47;102803.31;5059092;28;20032;-66
2023/05/31 08:14:23;;;;;;;0.10;0.10;;;;;;;23.21;46.98;102799.00;5055501;28;20086;-66
2023/05/31 08:16:49;;;;;;;0.10;0.10;;;;;;;24.26;43.79;102793.38;5056438;28;20043;-68
2023/05/31 08:19:15;;;;;;;0.10;0.10;;;;;;;23.85;44.85;102799.72;5046461;28;20087;-66
2023/05/31 08:21:40;;;;;;;0.00;0.00;;;;;;;24.54;43.71;102789.34;5049510;28;20037;-67
2023/05/31 08:24:06;;;;;;;0.00;0.00;;;;;;;25.24;41.09;102793.00;5057682;28;20009;-68
2023/05/31 08:26:33;;;;;;;0.10;0.10;;;;;;;24.90;40.97;102778.13;5049033;28;20029;-67
2023/05/31 08:28:59;;;;;;;0.10;0.10;;;;;;;25.16;41.28;102777.06;5049506;28;20037;-67
2023/05/31 08:31:24;;;;;;;0.00;0.00;;;;;;;24.52;43.13;102775.88;5047620;28;20039;-68
2023/05/31 08:33:58;;;;;;;0.00;0.00;;;;;;;25.60;40.47;102774.56;5049042;28;20069;-66
2023/05/31 08:36:25;;;;;;;0.00;0.00;;;;;;;24.66;41.86;102777.00;5049888;28;20040;-67
2023/05/31 08:38:50;;;;;;;0.08;0.08;;;;;;;24.79;41.69;102771.00;5048043;28;20144;-67
2023/05/31 08:41:17;;;;;;;0.00;0.00;;;;;;;25.80;40.23;102776.44;5046419;28;20041;-68
2023/05/31 08:43:44;;;;;;;0.00;0.00;;;;;;;25.96;38.78;102770.56;5042565;28;20506;-67
2023/05/31 08:46:10;;;;;;;0.00;0.00;;;;;;;25.02;40.79;102769.63;5037115;28;20401;-67
2023/05/31 08:48:53;;;;;;;0.00;0.00;;;;;;;26.03;39.27;102773.88;5047851;28;20377;-67
2023/05/31 08:51:19;;;;;;;0.00;0.00;;;;;;;25.62;40.03;102774.28;5049109;28;20408;-66
2023/05/31 08:53:46;;;;;;;0.00;0.00;;;;;;;26.04;39.12;102770.00;5048589;28;20025;-67
2023/05/31 08:56:13;;;;;;;0.00;0.00;;;;;;;25.77;39.72;102771.47;5048579;28;20033;-69
2023/05/31 08:58:42;;;;;;;0.00;0.00;;;;;;;26.92;37.38;102767.31;5048687;28;20033;-67
2023/05/31 09:01:08;;;;;;;0.00;0.00;;;;;;;24.62;41.94;102764.88;5049591;28;20032;-67
2023/05/31 09:03:34;;;;;;;0.03;0.03;;;;;;;26.56;38.34;102763.13;5029576;28;20041;-68
2023/05/31 09:05:59;;;;;;;0.10;0.10;;;;;;;27.19;37.53;102761.28;5049646;28;20496;-68
2023/05/31 09:08:25;;;;;;;0.00;0.00;;;;;;;26.34;37.56;102758.03;5047404;28;20029;-67
2023/05/31 09:10:50;;;;;;;0.00;0.00;;;;;;;26.13;38.20;102756.50;5054493;28;20025;-67
2023/05/31 09:13:16;;;;;;;0.00;0.00;;;;;;;25.53;39.23;102753.94;5056342;28;20035;-66
2023/05/31 09:15:43;;;;;;;0.00;0.00;;;;;;;26.13;38.62;102755.66;5048363;28;20033;-66
2023/05/31 09:18:16;;;;;;;0.00;0.00;;;;;;;26.68;38.16;102744.28;5048327;28;20045;-68
2023/05/31 09:20:42;;;;;;;0.00;0.00;;;;;;;26.57;38.38;102748.25;5051952;28;20025;-66
2023/05/31 09:23:09;;;;;;;0.00;0.00;;;;;;;26.92;37.33;102745.25;5050746;28;20060;-66
2023/05/31 09:25:49;;;;;;;0.00;0.00;;;;;;;27.07;35.92;102738.75;5040300;28;20030;-68
2023/05/31 09:28:16;;;;;;;0.00;0.00;;;;;;;26.95;36.49;102737.22;5034915;28;20060;-65
2023/05/31 09:30:42;;;;;;;0.00;0.00;;;;;;;27.50;35.59;102738.63;5046689;28;20027;-69
2023/05/31 09:33:07;;;;;;;0.00;0.00;;;;;;;27.48;35.06;102729.81;5028810;28;20013;-67
2023/05/31 09:35:33;;;;;;;0.00;0.00;;;;;;;27.70;34.12;102730.13;5044751;28;20147;-68
2023/05/31 09:38:04;;;;;;;0.00;0.00;;;;;;;27.38;35.66;102732.69;5030557;28;20540;-67
2023/05/31 09:40:32;;;;;;;0.00;0.00;;;;;;;26.56;37.58;102730.88;5041404;28;20036;-67
2023/05/31 09:42:57;;;;;;;0.10;0.10;;;;;;;26.30;37.09;102718.34;5042069;28;20260;-66
2023/05/31 09:45:23;;;;;;;0.00;0.00;;;;;;;28.23;33.95;102721.72;5054359;28;20044;-67
2023/05/31 09:47:49;;;;;;;0.00;0.00;;;;;;;27.44;34.69;102719.66;5052107;28;20052;-68
2023/05/31 09:50:16;;;;;;;0.00;0.00;;;;;;;27.59;34.47;102725.00;5049104;28;20064;-67
2023/05/31 09:52:47;;;;;;;0.00;0.00;;;;;;;28.19;33.59;102718.72;5029114;28;20373;-68
2023/05/31 09:55:14;;;;;;;0.00;0.00;;;;;;;27.50;34.31;102722.06;5048210;28;20075;-67
2023/05/31 09:57:41;;;;;;;0.00;0.00;;;;;;;28.33;33.14;102722.41;5046828;28;20024;-68
2023/05/31 10:00:18;;;;;;;0.00;0.00;;;;;;;28.78;33.20;102718.13;5049478;28;20025;-68
2023/05/31 10:02:47;;;;;;;0.00;0.00;;;;;;;29.11;32.48;102722.50;5046887;28;20087;-68
2023/05/31 10:05:13;;;;;;;0.00;0.00;;;;;;;27.83;33.93;102721.09;5049041;28;20039;-67
2023/05/31 10:07:40;;;;;;;0.00;0.00;;;;;;;28.37;33.70;102715.16;5049241;28;20154;-69
2023/05/31 10:10:06;;;;;;;0.00;0.00;;;;;;;28.52;33.64;102720.44;5029689;28;20048;-66
2023/05/31 10:12:36;;;;;;;0.00;0.00;;;;;;;28.89;32.98;102716.84;5048554;28;20044;-67
2023/05/31 10:15:08;;;;;;;0.00;0.00;;;;;;;27.94;35.13;102719.03;5037930;28;20021;-69
2023/05/31 10:17:38;;;;;;;0.00;0.00;;;;;;;29.03;32.58;102711.34;5024217;28;20175;-67
2023/05/31 10:20:07;;;;;;;0.00;0.00;;;;;;;29.72;31.13;102711.13;5035582;28;20033;-67
2023/05/31 10:22:37;;;;;;;0.00;0.00;;;;;;;27.87;34.09;102707.53;5043905;28;20029;-69
2023/05/31 10:25:06;;;;;;;0.00;0.00;;;;;;;29.10;32.14;102707.03;5036154;28;20029;-67
2023/05/31 10:27:39;;;;;;;0.00;0.00;;;;;;;29.88;31.10;102703.31;5044555;28;20033;-67
2023/05/31 10:30:06;;;;;;;0.00;0.00;;;;;;;29.33;32.57;102695.00;5047762;28;20508;-70
2023/05/31 10:32:33;;;;;;;0.00;0.00;;;;;;;29.18;32.03;102695.28;5046139;28;20119;-69
2023/05/31 10:35:00;;;;;;;0.00;0.00;;;;;;;29.79;31.06;102694.94;5046598;28;20071;-68
2023/05/31 10:37:26;;;;;;;0.00;0.00;;;;;;;28.36;32.91;102690.56;5047054;28;20523;-68
2023/05/31 10:40:10;;;;;;;0.00;0.00;;;;;;;29.26;32.27;102686.28;5047341;28;20037;-68
2023/05/31 10:42:58;;;;;;;0.00;0.00;;;;;;;30.42;29.74;102675.47;5047310;28;20074;-67
2023/05/31 10:45:28;;;;;;;0.00;0.00;;;;;;;28.51;32.32;102679.25;5046125;28;20524;-68
2023/05/31 10:48:06;;;;;;;0.00;0.00;;;;;;;27.52;34.38;102674.81;5046635;28;20064;-68
2023/05/31 10:50:31;;;;;;;0.00;0.00;;;;;;;28.75;32.45;102670.84;5045920;28;20041;-68
2023/05/31 10:53:11;;;;;;;0.10;0.00;;;;;;;29.87;31.35;102660.94;5046128;28;20059;-69
2023/05/31 10:55:42;;;;;;;0.00;0.00;;;;;;;28.64;31.81;102667.44;5044722;28;20051;-68
2023/05/31 10:58:51;;;;;;;0.00;0.00;;;;;;;29.17;31.90;102659.59;5048539;28;20060;-70
2023/05/31 11:01:21;;;;;;;0.00;0.00;;;;;;;28.02;33.72;102659.53;5044211;28;20049;-69
2023/05/31 11:03:51;;;;;;;0.00;0.00;;;;;;;29.75;31.01;102649.56;5033005;28;20539;-69
2023/05/31 11:06:26;;;;;;;0.00;0.00;;;;;;;28.80;32.39;102651.38;5040099;28;20013;-70
2023/05/31 11:09:08;;;;;;;0.15;0.00;;;;;;;30.21;30.27;102652.13;5042345;28;20588;-70
2023/05/31 11:11:33;;;;;;;0.00;0.00;;;;;;;30.69;29.12;102646.75;5039782;28;20061;-69
2023/05/31 11:14:01;;;;;;;0.00;0.00;;;;;;;30.09;29.84;102649.88;5043101;28;20159;-70
2023/05/31 11:16:27;;;;;;;0.00;0.00;;;;;;;30.30;29.35;102641.94;5041166;28;20049;-70
2023/05/31 11:19:07;;;;;;;0.00;0.00;;;;;;;31.16;28.16;102637.72;5039736;28;20087;-70
2023/05/31 11:21:55;;;;;;;0.00;0.00;;;;;;;31.11;28.20;102632.34;5043413;28;20041;-70
2023/05/31 11:24:29;;;;;;;0.00;0.00;;;;;;;30.38;29.48;102630.06;5045123;28;20736;-69